• Join FlightAware (Why Join?)
  • Login
  • US Flag 
11:54PM EDT


 

Airport Tracker/Info


-or-


 

Live Flight TrackerFlight Track Log ✈ JUS196 ✈ 17-Apr-2013 ✈ KYIP - KELP

Flight Track Log - Related Links

Times and Time Zones

All times are in EDT time to prevent confusion due to time zone crossing. See the JUS196 flight status page for this flight to view local times or setup timezone preferences in your user account.

Time Position Orientation Groundspeed Altitude Reporting Facility
EDT Latitude Longitude Course Direction KTS MPH feet Rate Location/Type
01:05AM 42.2444 -83.5619 281° West 172 198 1,800  Level Cleveland Center
01:06AM 42.2550 -83.6356 281° West 199 229 3,700 1,560 Climbing Cleveland Center
01:06AM 42.2586 -83.6581 282° West 205 236 3,900 3,060 Climbing Cleveland Center
01:08AM 42.3042 -83.8203 291° West 271 312 10,800 3,360 Climbing Cleveland Center
01:09AM 42.3306 -83.9144 291° West 266 306 14,100 2,820 Climbing Cleveland Center
01:10AM 42.3461 -84.0219 281° West 272 313 16,500 2,580 Climbing Cleveland Center
01:11AM 42.3078 -84.1239 243° Southwest 278 320 19,300 2,340 Climbing Cleveland Center
01:13AM 42.2469 -84.2758 242° Southwest 317 365 22,400 1,680 Climbing Chicago Center
01:14AM 42.2061 -84.3964 245° Southwest 350 403 23,600 1,500 Climbing Chicago Center
01:15AM 42.1656 -84.5283 248° West 377 434 25,500 1,860 Climbing Chicago Center
01:16AM 42.1278 -84.6636 249° West 384 442 27,400 1,860 Climbing Chicago Center
01:17AM 42.0889 -84.7969 249° West 383 441 29,300 1,560 Climbing Chicago Center
01:18AM 42.0503 -84.9311 249° West 385 443 30,600 1,380 Climbing Chicago Center
01:19AM 42.0089 -85.0656 248° West 388 447 32,100 1,620 Climbing Chicago Center
01:20AM 41.9617 -85.2144 247° West 384 442 33,900 900 Climbing Chicago Center
01:21AM 41.9153 -85.3447 244° Southwest 390 449 34,000  Climbing Chicago Center
01:22AM 41.8647 -85.4778 243° Southwest 404 465 34,000  Level Chicago Center
01:23AM 41.8211 -85.6111 246° West 396 456 34,000  Level Chicago Center
01:24AM 41.7772 -85.7419 246° West 390 449 34,000  Level Chicago Center
01:25AM 41.7311 -85.8747 245° Southwest 395 455 34,000  Level Chicago Center
01:26AM 41.6844 -86.0044 244° Southwest 392 451 34,000  Level Chicago Center
01:27AM 41.6394 -86.1353 245° Southwest 391 450 34,000  Level Chicago Center
01:28AM 41.5944 -86.2661 245° Southwest 389 448 34,000  Level Chicago Center
01:29AM 41.5489 -86.3953 245° Southwest 387 445 34,000  Level Chicago Center
01:30AM 41.5044 -86.5239 245° Southwest 384 442 34,000  Level Chicago Center
01:31AM 41.4583 -86.6519 244° Southwest 384 442 34,000  Level Chicago Center
01:32AM 41.4103 -86.7753 243° Southwest 381 438 34,000  Level Chicago Center
01:33AM 41.3644 -86.9031 244° Southwest 382 440 34,000  Level Chicago Center
01:34AM 41.3194 -87.0336 245° Southwest 386 444 34,000  Level Chicago Center
01:35AM 41.2731 -87.1625 244° Southwest 386 444 34,000  Level Chicago Center
01:36AM 41.2292 -87.2919 246° West 385 443 34,000  Level Chicago Center
01:37AM 41.1831 -87.4194 244° Southwest 384 442 34,000  Level Chicago Center
01:38AM 41.1356 -87.5478 244° Southwest 387 445 34,000  Level Chicago Center
01:39AM 41.0906 -87.6758 245° Southwest 385 443 34,000  Level Chicago Center
01:40AM 41.0458 -87.8019 245° Southwest 379 436 34,000  Level Chicago Center
01:41AM 40.9997 -87.9283 244° Southwest 380 437 34,000  Level Chicago Center
01:42AM 40.9522 -88.0539 243° Southwest 381 438 34,000  Level Chicago Center
01:43AM 40.9056 -88.1792 244° Southwest 379 436 34,000  Level Chicago Center
01:44AM 40.8592 -88.3036 244° Southwest 379 436 34,000  Level Chicago Center
01:45AM 40.8119 -88.4272 243° Southwest 379 436 34,000  Level Chicago Center
01:46AM 40.7661 -88.5519 244° Southwest 378 435 34,000  Level Chicago Center
01:47AM 40.7178 -88.6756 243° Southwest 380 437 34,000  Level Chicago Center
01:48AM 40.6717 -88.7997 244° Southwest 378 435 34,000  Level Chicago Center
01:49AM 40.6192 -88.9414 244° Southwest 379 436 34,000  Level Chicago Center
01:50AM 40.5719 -89.0644 243° Southwest 377 434 34,000  Level Chicago Center
01:51AM 40.5208 -89.1850 241° Southwest 377 434 34,000  Level Chicago Center
01:52AM 40.4706 -89.3086 242° Southwest 382 440 34,000  Level Chicago Center
01:53AM 40.4233 -89.4294 243° Southwest 374 430 34,000  Level Chicago Center
01:54AM 40.3789 -89.5564 245° Southwest 380 437 34,000  Level Chicago Center
01:55AM 40.3300 -89.6811 243° Southwest 382 440 34,000  Level Chicago Center
01:56AM 40.2831 -89.8033 243° Southwest 376 433 34,000  Level Chicago Center
01:57AM 40.2458 -89.9008 243° Southwest 373 429 34,000  Level Chicago Center
01:58AM 40.1978 -90.0236 243° Southwest 376 433 34,000  Level Chicago Center
01:59AM 40.1494 -90.1458 243° Southwest 377 434 34,000  Level Chicago Center
02:00AM 40.1006 -90.2678 242° Southwest 376 433 34,000  Level Chicago Center
02:01AM 40.0519 -90.3928 243° Southwest 380 437 34,000  Level Kansas City Center
02:02AM 40.0044 -90.5172 244° Southwest 381 438 34,000  Level Kansas City Center
02:03AM 39.9542 -90.6372 241° Southwest 380 437 34,000  Level Kansas City Center
02:04AM 39.9042 -90.7617 242° Southwest 383 441 34,000  Level Kansas City Center
02:05AM 39.8533 -90.8858 242° Southwest 386 444 34,000  Level Kansas City Center
02:06AM 39.8097 -90.9947 242° Southwest 386 444 34,000  Level Kansas City Center
02:07AM 39.7528 -91.1333 242° Southwest 389 448 34,000  Level Kansas City Center
02:08AM 39.7019 -91.2572 242° Southwest 390 449 34,000  Level Kansas City Center
02:09AM 39.6569 -91.3667 242° Southwest 391 450 34,000  Level Kansas City Center
02:10AM 39.6064 -91.4917 242° Southwest 393 452 34,000  Level Kansas City Center
02:11AM 39.5544 -91.6128 241° Southwest 390 449 34,000  Level Kansas City Center
02:12AM 39.5039 -91.7358 242° Southwest 387 445 34,000  Level Kansas City Center
02:13AM 39.4528 -91.8569 241° Southwest 387 445 34,000  Level Kansas City Center
02:14AM 39.4031 -91.9781 242° Southwest 385 443 34,000  Level Kansas City Center
02:15AM 39.3525 -92.0969 241° Southwest 381 438 34,000  Level Kansas City Center
02:16AM 39.3011 -92.2181 241° Southwest 383 441 34,000  Level Kansas City Center
02:17AM 39.2428 -92.3536 241° Southwest 385 443 34,000  Level Kansas City Center
02:18AM 39.1903 -92.4753 241° Southwest 386 444 34,000  Level Kansas City Center
02:19AM 39.1381 -92.5964 241° Southwest 387 445 34,000  Level Kansas City Center
02:20AM 39.0822 -92.7253 241° Southwest 388 447 34,000  Level Kansas City Center
02:21AM 39.0306 -92.8481 242° Southwest 391 450 34,000  Level Kansas City Center
02:22AM 38.9814 -92.9636 241° Southwest 389 448 34,000  Level Kansas City Center
02:23AM 38.9289 -93.0833 241° Southwest 386 444 34,000  Level Kansas City Center
02:24AM 38.8747 -93.2058 240° Southwest 390 449 34,000  Level Kansas City Center
02:25AM 38.8217 -93.3269 241° Southwest 390 449 34,000  Level Kansas City Center
02:26AM 38.7697 -93.4469 241° Southwest 387 445 34,000  Level Kansas City Center
02:27AM 38.7158 -93.5650 240° Southwest 386 444 34,000  Level Kansas City Center
02:28AM 38.6622 -93.6847 240° Southwest 386 444 34,000  Level Kansas City Center
02:29AM 38.6058 -93.8117 240° Southwest 390 449 34,000  Level Kansas City Center
02:30AM 38.5536 -93.9258 240° Southwest 389 448 34,000  Level Kansas City Center
02:31AM 38.5014 -94.0400 240° Southwest 388 447 34,000  Level Kansas City Center
02:32AM 38.4500 -94.1544 240° Southwest 389 448 34,000  Level Kansas City Center
02:33AM 38.3903 -94.2864 240° Southwest 386 444 34,000  Level Kansas City Center
02:34AM 38.3372 -94.4022 240° Southwest 391 450 34,000  Level Kansas City Center
02:35AM 38.2858 -94.5150 240° Southwest 388 447 34,000  Level Kansas City Center
02:36AM 38.2347 -94.6281 240° Southwest 385 443 34,000  Level Kansas City Center
02:37AM 38.1742 -94.7606 240° Southwest 386 444 34,000  Level Kansas City Center
02:38AM 38.1217 -94.8742 240° Southwest 388 447 34,000  Level Kansas City Center
02:39AM 38.0694 -94.9872 240° Southwest 387 445 34,000  Level Kansas City Center
02:40AM 38.0081 -95.1181 239° Southwest 386 444 34,000  Level Kansas City Center
02:41AM 37.9550 -95.2331 240° Southwest 391 450 34,000  Level Kansas City Center
02:42AM 37.9064 -95.3403 240° Southwest 387 445 34,000  Level Kansas City Center
02:43AM 37.8511 -95.4547 239° Southwest 383 441 34,000  Level Kansas City Center
02:44AM 37.7972 -95.5728 240° Southwest 386 444 34,000  Level Kansas City Center
02:45AM 37.7422 -95.6875 239° Southwest 384 442 34,000  Level Kansas City Center
02:46AM 37.6867 -95.8025 239° Southwest 384 442 34,000  Level Kansas City Center
02:47AM 37.6308 -95.9211 239° Southwest 390 449 34,000  Level Kansas City Center
02:48AM 37.5753 -96.0358 239° Southwest 385 443 34,000  Level Kansas City Center
02:49AM 37.5183 -96.1503 238° Southwest 386 444 34,000  Level Kansas City Center
02:50AM 37.4633 -96.2644 239° Southwest 384 442 34,000  Level Kansas City Center
02:51AM 37.4075 -96.3781 238° Southwest 382 440 34,000  Level Kansas City Center
02:52AM 37.3483 -96.5028 239° Southwest 383 441 34,000  Level Kansas City Center
02:53AM 37.2925 -96.6167 238° Southwest 383 441 34,000  Level Kansas City Center
02:54AM 37.2369 -96.7300 238° Southwest 382 440 34,000  Level Kansas City Center
02:55AM 37.1811 -96.8447 239° Southwest 382 440 34,000  Level Kansas City Center
02:56AM 37.1244 -96.9594 238° Southwest 385 443 34,000  Level Kansas City Center
02:57AM 37.0678 -97.0736 238° Southwest 385 443 34,000  Level Kansas City Center
02:58AM 37.0117 -97.1886 239° Southwest 386 444 34,000  Level Kansas City Center
02:59AM 36.9544 -97.3042 238° Southwest 388 447 34,000  Level Kansas City Center
03:00AM 36.8981 -97.4183 238° Southwest 387 445 34,000  Level Kansas City Center
03:01AM 36.8403 -97.5356 238° Southwest 391 450 34,000  Level Kansas City Center
03:02AM 36.7708 -97.6419 231° Southwest 394 453 34,000  Level Kansas City Center
03:03AM 36.7053 -97.7589 235° Southwest 390 449 34,000  Level Kansas City Center
03:04AM 36.6497 -97.8753 239° Southwest 391 450 34,000  Level Kansas City Center
03:05AM 36.5967 -97.9953 241° Southwest 393 452 34,000  Level Kansas City Center
03:06AM 36.5417 -98.1128 240° Southwest 393 452 34,000  Level Kansas City Center
03:07AM 36.4869 -98.2308 240° Southwest 392 451 34,000  Level Kansas City Center
03:08AM 36.4281 -98.3447 237° Southwest 392 451 34,000  Level Kansas City Center
03:09AM 36.3706 -98.4578 238° Southwest 389 448 34,000  Level Kansas City Center
03:10AM 36.3133 -98.5722 238° Southwest 389 448 34,000  Level Kansas City Center
03:11AM 36.2544 -98.6847 237° Southwest 388 447 34,000  Level Kansas City Center
03:12AM 36.1981 -98.7947 238° Southwest 389 448 34,000  Level Kansas City Center
03:13AM 36.1383 -98.9081 237° Southwest 391 450 34,000  Level Kansas City Center
03:14AM 36.0794 -99.0200 237° Southwest 390 449 34,000  Level Kansas City Center
03:15AM 36.0219 -99.1322 238° Southwest 390 449 34,000  Level Kansas City Center
03:17AM 35.9289 -99.3067 237° Southwest 391 450 34,000  Level Albuquerque Center
03:18AM 35.8703 -99.4186 237° Southwest 388 447 34,000  Level Albuquerque Center
03:18AM 35.8356 -99.4858 238° Southwest 386 444 34,000  Level Kansas City Center
03:19AM 35.7761 -99.5975 237° Southwest 386 444 34,000  Level Kansas City Center
03:20AM 35.7531 -99.6425 238° Southwest 389 448 34,000  Level Albuquerque Center
03:21AM 35.6939 -99.7528 237° Southwest 387 445 34,000  Level Albuquerque Center
03:22AM 35.6336 -99.8647 236° Southwest 389 448 34,000  Level Albuquerque Center
03:23AM 35.5750 -99.9767 237° Southwest 389 448 34,000  Level Albuquerque Center
03:24AM 35.5147 -100.0872 236° Southwest 389 448 34,000  Level Albuquerque Center
03:25AM 35.4553 -100.1986 237° Southwest 389 448 34,000  Level Albuquerque Center
03:26AM 35.3953 -100.3100 237° Southwest 390 449 34,000  Level Albuquerque Center
03:27AM 35.3344 -100.4208 236° Southwest 391 450 34,000  Level Albuquerque Center
03:28AM 35.2736 -100.5339 237° Southwest 395 455 34,000  Level Albuquerque Center
03:29AM 35.2106 -100.6447 235° Southwest 396 456 34,000  Level Albuquerque Center
03:30AM 35.1417 -100.7644 235° Southwest 396 456 34,000  Level Albuquerque Center
03:31AM 35.0775 -100.8733 234° Southwest 394 453 34,000  Level Albuquerque Center
03:32AM 35.0158 -100.9853 236° Southwest 396 456 34,000  Level Albuquerque Center
03:33AM 34.9542 -101.0981 236° Southwest 397 457 34,000  Level Albuquerque Center
03:34AM 34.8933 -101.2106 237° Southwest 396 456 34,000  Level Albuquerque Center
03:35AM 34.8317 -101.3222 236° Southwest 396 456 34,000  Level Albuquerque Center
03:36AM 34.7697 -101.4353 236° Southwest 397 457 34,000  Level Albuquerque Center
03:37AM 34.7069 -101.5467 236° Southwest 398 458 34,000  Level Albuquerque Center
03:38AM 34.6436 -101.6614 236° Southwest 404 465 34,000  Level Albuquerque Center
03:39AM 34.5817 -101.7739 236° Southwest 402 463 34,000  Level Albuquerque Center
03:39AM 34.5431 -101.8406 235° Southwest 402 463 34,000  Level Albuquerque Center
03:40AM 34.4789 -101.9539 236° Southwest 404 465 34,000  Level Albuquerque Center
03:41AM 34.4158 -102.0656 236° Southwest 403 464 34,000  Level Albuquerque Center
03:42AM 34.3517 -102.1775 235° Southwest 403 464 34,000  Level Albuquerque Center
03:43AM 34.2872 -102.2892 235° Southwest 403 464 34,000  Level Albuquerque Center
03:44AM 34.2233 -102.3997 235° Southwest 402 463 34,000  Level Albuquerque Center
03:45AM 34.1694 -102.4942 235° Southwest 403 464 34,000  Level Albuquerque Center
03:46AM 34.1061 -102.6053 235° Southwest 403 464 34,000  Level Albuquerque Center
03:47AM 34.0425 -102.7150 235° Southwest 402 463 34,000  Level Albuquerque Center
03:48AM 33.9794 -102.8233 235° Southwest 398 458 34,000  Level Albuquerque Center
03:49AM 33.9028 -102.9497 234° Southwest 392 451 34,000  Level Albuquerque Center
03:50AM 33.8317 -103.0478 229° Southwest 391 450 34,000  Level Albuquerque Center
03:51AM 33.7606 -103.1489 230° Southwest 393 452 34,000  Level Albuquerque Center
03:52AM 33.6922 -103.2514 231° Southwest 395 455 34,000  Level Albuquerque Center
03:53AM 33.6247 -103.3556 232° Southwest 395 455 34,000  Level Albuquerque Center
03:54AM 33.5594 -103.4556 232° Southwest 391 450 34,000  Level Albuquerque Center
03:55AM 33.4908 -103.5594 232° Southwest 394 453 34,000  Level Albuquerque Center
03:56AM 33.4228 -103.6597 231° Southwest 392 451 34,000  Level Albuquerque Center
03:57AM 33.3528 -103.7653 232° Southwest 387 445 34,000  Level Albuquerque Center
03:58AM 33.2861 -103.8656 232° Southwest 385 443 34,000  Level Albuquerque Center
03:59AM 33.2186 -103.9636 231° Southwest 383 441 34,000  Level Albuquerque Center
04:00AM 33.1508 -104.0608 230° Southwest 382 440 34,000  Level Albuquerque Center
04:01AM 33.0828 -104.1586 230° Southwest 381 438 34,000 -540 Level Albuquerque Center
04:02AM 33.0128 -104.2533 229° Southwest 380 437 33,000 -960 Descending Albuquerque Center
04:03AM 32.9461 -104.3497 231° Southwest 377 434 32,100 -900 Descending Albuquerque Center
04:04AM 32.8828 -104.4450 232° Southwest 369 425 31,200 -960 Descending Albuquerque Center
04:05AM 32.8203 -104.5408 232° Southwest 365 420 30,200 -1,020 Descending Albuquerque Center
04:06AM 32.7553 -104.6375 231° Southwest 372 428 29,200 -1,020 Descending Albuquerque Center
04:07AM 32.6886 -104.7344 231° Southwest 379 436 28,200 -1,320 Descending Albuquerque Center
04:08AM 32.6197 -104.8292 229° Southwest 378 435 26,600 -2,400 Descending Albuquerque Center
04:09AM 32.5542 -104.9186 229° Southwest 363 418 23,500 -3,000 Descending Albuquerque Center
04:10AM 32.5053 -104.9981 234° Southwest 352 405 20,700 -3,000 Descending Albuquerque Center
04:11AM 32.4486 -105.0836 232° Southwest 336 387 17,600 -2,640 Descending Albuquerque Center
04:12AM 32.4019 -105.1594 234° Southwest 296 341 15,400 -2,040 Descending Albuquerque Center
04:13AM 32.3536 -105.2303 231° Southwest 280 322 13,600 -1,560 Descending Albuquerque Center
04:14AM 32.2914 -105.3017 224° Southwest 297 342 12,300 -900 Descending Albuquerque Center
04:15AM 32.2314 -105.3767 227° Southwest 312 359 11,900 -240 Descending Albuquerque Center
04:16AM 32.1778 -105.4489 229° Southwest 299 344 11,900  Level Albuquerque Center
04:17AM 32.1253 -105.5236 230° Southwest 297 342 11,900  Level Albuquerque Center
04:18AM 32.0628 -105.6133 231° Southwest 297 342 11,900 -300 Level Albuquerque Center
04:19AM 32.0106 -105.6875 230° Southwest 295 339 11,400 -900 Descending Albuquerque Center
04:20AM 31.9667 -105.7689 238° Southwest 297 342 10,200 -780 Descending Albuquerque Center
04:21AM 31.9411 -105.8539 251° West 279 321 9,900 -180 Descending Albuquerque Center
04:22AM 31.9192 -105.9344 252° West 263 303 9,900  Level Albuquerque Center
04:23AM 31.8939 -106.0189 251° West 272 313 9,900 -420 Level Albuquerque Center
04:24AM 31.8706 -106.0967 251° West 253 291 9,100 -900 Descending Albuquerque Center
04:25AM 31.8525 -106.1603 252° West 212 244 8,100 -1,140 Descending Albuquerque Center
04:26AM 31.8364 -106.2075 248° West 161 185 6,900 -1,320 Descending Albuquerque Center
04:27AM 31.8325 -106.2178 246° West 143 165 6,500 -1,200 Descending Albuquerque Center
04:27AM 31.8206 -106.2508 247° West 146 168 5,700 -840 Descending Albuquerque Center
04:28AM 31.8192 -106.2611 261° West 135 155 5,700 -420 Level Albuquerque Center
04:28AM 31.8122 -106.2911 255° West 130 150 5,300 -540 Descending Albuquerque Center
04:29AM 31.8094 -106.3011 252° West 124 143 5,200 -600 Descending Albuquerque Center
04:29AM 31.7989 -106.3264 244° Southwest 117 135 4,700 -720 Descending Albuquerque Center
04:30AM 31.7986 -106.3361 268° West 111 128 4,500 -720 Descending Albuquerque Center
04:30AM 31.8014 -106.3628 277° West 111 128 4,000 -720 Descending Albuquerque Center
04:32AM 31.8000 -106.3667 270° West  Level FlightAware Approximate
04:39AM 31.8072 -106.3764 270° West  Level Estimated
04:40AM 31.8072 -106.3764 270° West  Level Estimated
04:41AM 31.8072 -106.3764 270° West  Level Estimated